createdAt,value
2023-01-01T00:00:53.533Z,14.00
2023-01-01T00:03:42.239Z,13.90
2023-01-01T00:06:13.372Z,11.50
2023-01-01T00:08:42.128Z,10.90
2023-01-01T00:11:11.125Z,11.90
2023-01-01T00:13:44.112Z,13.20
2023-01-01T00:16:14.661Z,12.80
2023-01-01T00:18:43.315Z,11.70
2023-01-01T00:21:13.898Z,11.90
2023-01-01T00:23:42.844Z,14.60
2023-01-01T00:26:12.702Z,13.20
2023-01-01T00:28:41.392Z,12.90
2023-01-01T00:31:10.461Z,11.00
2023-01-01T00:33:41.682Z,12.60
2023-01-01T00:36:11.990Z,10.20
2023-01-01T00:38:41.639Z,12.90
2023-01-01T00:41:11.275Z,10.80
2023-01-01T00:43:43.126Z,12.50
2023-01-01T00:46:12.347Z,13.00
2023-01-01T00:48:41.214Z,13.60
2023-01-01T00:51:10.301Z,11.50
2023-01-01T00:53:39.202Z,12.70
2023-01-01T00:56:10.392Z,13.30
2023-01-01T00:58:39.114Z,13.40
2023-01-01T01:01:07.868Z,13.70
2023-01-01T01:03:38.578Z,12.00
2023-01-01T01:06:12.701Z,13.30
2023-01-01T01:08:44.485Z,13.30
2023-01-01T01:11:15.991Z,14.60
2023-01-01T01:13:46.419Z,12.30
2023-01-01T01:16:18.236Z,16.20
2023-01-01T01:18:47.304Z,15.80
2023-01-01T01:21:17.802Z,11.70
2023-01-01T01:23:46.608Z,12.30
2023-01-01T01:26:17.467Z,14.00
2023-01-01T01:28:49.635Z,32.90
2023-01-01T01:31:19.633Z,16.40
2023-01-01T01:33:51.009Z,21.00
2023-01-01T01:36:20.498Z,17.40
2023-01-01T01:38:49.143Z,18.80
2023-01-01T01:41:27.916Z,14.30
2023-01-01T01:43:59.781Z,12.10
2023-01-01T01:46:34.578Z,16.20
2023-01-01T01:49:13.430Z,12.30
2023-01-01T01:51:43.783Z,13.20
2023-01-01T01:54:18.158Z,17.00
2023-01-01T01:56:52.251Z,14.30
2023-01-01T01:59:22.388Z,15.30
2023-01-01T02:01:52.046Z,14.40
2023-01-01T02:04:20.930Z,12.50
2023-01-01T02:06:50.001Z,15.60
2023-01-01T02:09:18.883Z,16.70
2023-01-01T02:11:47.426Z,15.10
2023-01-01T02:14:16.255Z,17.00
2023-01-01T02:16:50.318Z,13.70
2023-01-01T02:19:29.736Z,11.90
2023-01-01T02:22:09.431Z,13.80
2023-01-01T02:24:48.509Z,13.60
2023-01-01T02:27:28.768Z,13.70
2023-01-01T02:30:01.858Z,14.70
2023-01-01T02:32:37.361Z,13.20
2023-01-01T02:35:29.137Z,14.50
2023-01-01T02:38:02.173Z,14.60
2023-01-01T02:40:31.474Z,14.70
2023-01-01T02:43:03.173Z,14.20
2023-01-01T02:45:32.234Z,15.10
2023-01-01T02:48:06.574Z,12.00
2023-01-01T02:50:35.914Z,12.40
2023-01-01T02:53:15.196Z,15.50
2023-01-01T02:55:58.735Z,14.80
2023-01-01T02:58:54.148Z,15.20
2023-01-01T03:01:34.283Z,15.80
2023-01-01T03:04:12.421Z,15.50
2023-01-01T03:06:52.012Z,14.50
2023-01-01T03:09:27.623Z,15.90
2023-01-01T03:12:02.610Z,15.90
2023-01-01T03:14:43.283Z,17.30
2023-01-01T03:17:19.004Z,16.00
2023-01-01T03:19:53.853Z,16.60
2023-01-01T03:22:26.611Z,15.30
2023-01-01T03:24:59.049Z,13.80
2023-01-01T03:27:43.817Z,15.60
2023-01-01T03:30:15.740Z,12.70
2023-01-01T03:33:00.608Z,13.90
2023-01-01T03:35:45.581Z,10.70
2023-01-01T03:38:21.549Z,14.60
2023-01-01T03:40:54.297Z,13.90
2023-01-01T03:43:35.080Z,11.10
2023-01-01T03:46:05.850Z,15.10
2023-01-01T03:49:00.269Z,12.50
2023-01-01T03:51:45.571Z,14.50
2023-01-01T03:54:24.237Z,13.50
2023-01-01T03:56:59.427Z,14.60
2023-01-01T03:59:34.494Z,16.10
2023-01-01T04:02:10.361Z,12.60
2023-01-01T04:04:39.319Z,13.30
2023-01-01T04:07:15.081Z,10.90
2023-01-01T04:09:50.417Z,11.10
2023-01-01T04:12:20.264Z,9.60
2023-01-01T04:14:51.616Z,10.80
2023-01-01T04:17:20.354Z,11.50
2023-01-01T04:19:54.844Z,11.90
2023-01-01T04:22:23.980Z,9.40
2023-01-01T04:24:52.782Z,12.10
2023-01-01T04:27:21.464Z,11.50
2023-01-01T04:29:50.588Z,11.40
2023-01-01T04:32:19.515Z,12.20
2023-01-01T04:34:48.336Z,11.40
2023-01-01T04:37:17.500Z,11.70
2023-01-01T04:39:46.307Z,12.50
2023-01-01T04:42:14.887Z,10.50
2023-01-01T04:44:46.951Z,11.20
2023-01-01T04:47:15.657Z,11.10
2023-01-01T04:49:44.352Z,13.00
2023-01-01T04:52:12.974Z,12.70
2023-01-01T04:54:41.569Z,8.80
2023-01-01T04:59:41.705Z,11.40
2023-01-01T05:02:10.570Z,11.50
2023-01-01T05:04:39.245Z,9.90
2023-01-01T05:07:08.003Z,10.80
2023-01-01T05:09:37.566Z,10.70
2023-01-01T05:12:07.309Z,9.70
2023-01-01T05:14:35.901Z,11.50
2023-01-01T05:17:04.940Z,13.70
2023-01-01T05:19:33.832Z,10.60
2023-01-01T05:22:10.207Z,11.00
2023-01-01T05:24:39.468Z,10.70
2023-01-01T05:27:08.375Z,10.90
2023-01-01T05:29:38.423Z,11.90
2023-01-01T05:37:07.152Z,12.10
2023-01-01T05:39:36.796Z,11.40
2023-01-01T05:42:05.958Z,9.70
2023-01-01T05:44:34.698Z,11.20
2023-01-01T05:47:03.533Z,10.90
2023-01-01T05:49:32.265Z,9.90
2023-01-01T05:52:00.953Z,10.80
2023-01-01T05:54:29.602Z,10.20
2023-01-01T05:56:58.445Z,12.20
2023-01-01T05:59:27.094Z,12.00
2023-01-01T06:01:56.029Z,11.60
2023-01-01T06:04:25.284Z,15.20
2023-01-01T06:06:54.056Z,11.50
2023-01-01T06:09:22.697Z,11.40
2023-01-01T06:11:57.116Z,9.50
2023-01-01T06:14:25.942Z,10.10
2023-01-01T06:16:54.511Z,9.90
2023-01-01T06:19:23.316Z,10.60
2023-01-01T06:21:52.011Z,11.60
2023-01-01T06:24:20.672Z,11.60
2023-01-01T06:26:49.579Z,14.70
2023-01-01T06:29:18.246Z,14.20
2023-01-01T06:31:47.122Z,15.70
2023-01-01T06:34:15.778Z,16.10
2023-01-01T06:36:44.564Z,21.30
2023-01-01T06:39:15.580Z,17.00
2023-01-01T06:41:44.158Z,20.30
2023-01-01T06:44:12.759Z,18.20
2023-01-01T06:46:41.750Z,15.10
2023-01-01T06:49:12.203Z,16.60
2023-01-01T06:51:44.707Z,20.40
2023-01-01T06:54:13.364Z,20.70
2023-01-01T06:56:42.301Z,17.50
2023-01-01T06:59:11.074Z,17.50
2023-01-01T07:01:44.335Z,15.10
2023-01-01T07:04:15.609Z,18.30
2023-01-01T07:06:44.288Z,17.00
2023-01-01T07:09:12.970Z,18.70
2023-01-01T07:11:44.313Z,18.10
2023-01-01T07:14:13.131Z,12.60
2023-01-01T07:16:52.007Z,12.90
2023-01-01T07:19:20.625Z,14.40
2023-01-01T07:21:54.706Z,12.40
2023-01-01T07:24:23.617Z,12.60
2023-01-01T07:26:56.496Z,15.40
2023-01-01T07:29:30.407Z,17.20
2023-01-01T07:32:00.392Z,16.20
2023-01-01T07:34:50.957Z,14.10
2023-01-01T07:37:25.439Z,11.40
2023-01-01T07:40:07.917Z,11.50
2023-01-01T07:42:37.179Z,10.60
2023-01-01T07:45:16.762Z,10.80
2023-01-01T07:47:53.334Z,16.40
2023-01-01T07:50:43.276Z,17.70
2023-01-01T07:53:12.281Z,14.60
2023-01-01T07:56:08.637Z,14.40
2023-01-01T09:27:02.986Z,21.40
2023-01-01T09:29:32.577Z,20.50
2023-01-01T09:32:01.320Z,15.10
2023-01-01T09:34:30.061Z,15.60
2023-01-01T09:36:58.722Z,15.40
2023-01-01T09:39:27.393Z,17.60
2023-01-01T09:42:18.155Z,14.60
2023-01-01T09:45:01.671Z,12.30
2023-01-01T09:47:34.370Z,17.60
2023-01-01T09:50:08.286Z,12.70
2023-01-01T09:52:43.617Z,20.60
2023-01-01T09:55:19.550Z,16.90
2023-01-01T09:57:48.574Z,13.60
2023-01-01T10:00:20.114Z,23.60
2023-01-01T10:03:01.299Z,14.10
2023-01-01T10:05:42.571Z,14.80
2023-01-01T10:08:23.683Z,13.50
2023-01-01T10:11:05.426Z,13.30
2023-01-01T10:13:39.589Z,11.90
2023-01-01T10:16:23.982Z,11.40
2023-01-01T10:19:00.297Z,14.30
2023-01-01T10:21:34.251Z,12.90
2023-01-01T10:24:14.333Z,12.60
2023-01-01T10:26:43.187Z,12.20
2023-01-01T10:29:16.464Z,12.70
2023-01-01T10:31:46.853Z,13.00
2023-01-01T10:34:19.472Z,12.20
2023-01-01T10:36:51.415Z,12.70
2023-01-01T10:39:20.766Z,12.40
2023-01-01T10:41:50.093Z,11.70
2023-01-01T10:44:26.617Z,12.10
2023-01-01T10:46:58.671Z,12.40
2023-01-01T10:49:27.249Z,14.10
2023-01-01T10:51:55.921Z,15.70
2023-01-01T10:54:32.743Z,12.10
2023-01-01T10:57:15.570Z,12.80
2023-01-01T10:59:51.700Z,23.00
2023-01-01T11:02:24.199Z,16.30
2023-01-01T11:05:17.688Z,14.50
2023-01-01T11:07:50.124Z,10.40
2023-01-01T11:10:20.976Z,16.50
2023-01-01T11:13:06.674Z,17.40
2023-01-01T11:15:38.742Z,18.10
2023-01-01T11:18:13.368Z,28.70
2023-01-01T11:20:53.553Z,22.10
2023-01-01T11:23:29.930Z,21.20
2023-01-01T11:26:04.700Z,19.50
2023-01-01T11:28:34.910Z,21.20
2023-01-01T11:31:13.402Z,20.40
2023-01-01T11:33:47.857Z,25.70
2023-01-01T11:36:24.041Z,16.70
2023-01-01T11:39:07.864Z,25.60
2023-01-01T11:41:44.713Z,25.60
2023-01-01T11:44:24.107Z,23.50
2023-01-01T11:46:53.176Z,17.90
2023-01-01T11:49:26.112Z,23.50
2023-01-01T11:51:54.869Z,17.30
2023-01-01T11:54:30.184Z,16.80
2023-01-01T11:57:06.906Z,17.80
2023-01-01T11:59:44.726Z,15.70
2023-01-01T12:02:17.460Z,12.90
2023-01-01T12:04:50.404Z,11.10
2023-01-01T12:07:24.267Z,16.20
2023-01-01T12:10:00.888Z,11.60
2023-01-01T12:12:34.209Z,13.60
2023-01-01T12:15:10.937Z,15.60
2023-01-01T12:17:43.300Z,12.10
2023-01-01T12:20:21.007Z,14.60
2023-01-01T12:22:55.916Z,16.20
2023-01-01T12:28:21.434Z,18.50
2023-01-01T12:31:10.103Z,18.60
2023-01-01T12:33:58.252Z,19.30
2023-01-01T12:36:38.797Z,20.30
2023-01-01T12:39:50.081Z,19.40
2023-01-01T12:42:28.401Z,19.70
2023-01-01T12:45:30.891Z,17.80
2023-01-01T12:48:35.155Z,14.80
2023-01-01T12:51:20.224Z,14.70
2023-01-01T12:54:07.931Z,23.50
2023-01-01T12:56:43.178Z,24.10
2023-01-01T12:59:16.577Z,39.20
2023-01-01T13:01:48.249Z,56.10
2023-01-01T13:04:20.612Z,37.30
2023-01-01T13:06:51.845Z,27.40
2023-01-01T13:09:23.607Z,27.90
2023-01-01T13:11:55.890Z,38.00
2023-01-01T13:14:25.328Z,12.70
2023-01-01T13:16:58.741Z,12.60
2023-01-01T13:19:36.854Z,28.80
2023-01-01T13:22:41.452Z,14.90
2023-01-01T13:25:23.879Z,23.80
2023-01-01T13:28:11.819Z,39.10
2023-01-01T13:30:50.610Z,35.30
2023-01-01T13:33:26.769Z,28.20
2023-01-01T13:36:34.125Z,43.30
2023-01-01T13:39:11.235Z,41.90
2023-01-01T13:41:50.864Z,18.30
2023-01-01T13:44:22.993Z,20.10
2023-01-01T13:47:10.490Z,40.80
2023-01-01T13:49:57.090Z,32.50
2023-01-01T13:52:45.754Z,24.00
2023-01-01T13:55:38.816Z,24.20
2023-01-01T13:59:17.311Z,22.30
2023-01-01T14:01:54.927Z,39.10
2023-01-01T14:04:39.696Z,28.10
2023-01-01T14:07:49.633Z,37.90
2023-01-01T14:10:30.872Z,29.80
2023-01-01T14:13:16.008Z,28.40
2023-01-01T14:15:54.860Z,28.50
2023-01-01T14:18:31.855Z,19.70
2023-01-01T14:21:08.246Z,20.30
2023-01-01T14:23:48.481Z,18.80
2023-01-01T14:26:28.497Z,19.80
2023-01-01T14:29:02.681Z,19.00
2023-01-01T14:31:35.293Z,18.80
2023-01-01T14:34:15.023Z,22.90
2023-01-01T14:36:53.170Z,23.80
2023-01-01T14:39:28.292Z,39.50
2023-01-01T14:42:02.125Z,32.10
2023-01-01T14:44:35.596Z,36.10
2023-01-01T14:47:23.418Z,56.90
2023-01-01T14:49:57.514Z,37.00
2023-01-01T14:52:30.646Z,23.30
2023-01-01T14:55:20.763Z,17.70
2023-01-01T14:57:58.064Z,16.60
2023-01-01T15:00:29.355Z,15.70
2023-01-01T15:03:06.284Z,17.00
2023-01-01T15:05:36.512Z,15.60
2023-01-01T15:08:17.179Z,18.40
2023-01-01T15:10:46.501Z,48.10
2023-01-01T15:13:27.230Z,194.30
2023-01-01T15:16:17.387Z,39.20
2023-01-01T15:18:57.531Z,22.80
2023-01-01T15:21:39.220Z,21.50
2023-01-01T15:24:13.726Z,19.70
2023-01-01T15:26:55.895Z,60.70
2023-01-01T15:29:30.247Z,77.20
2023-01-01T15:32:01.549Z,61.90
2023-01-01T15:34:34.205Z,45.00
2023-01-01T15:37:14.669Z,58.30
2023-01-01T15:39:49.870Z,57.40
2023-01-01T15:42:33.335Z,45.00
2023-01-01T15:45:26.028Z,38.10
2023-01-01T15:47:56.455Z,25.10
2023-01-01T15:50:27.850Z,24.90
2023-01-01T15:53:03.371Z,21.90
2023-01-01T15:55:34.799Z,23.90
2023-01-01T15:58:04.081Z,21.00
2023-01-01T16:00:41.645Z,27.20
2023-01-01T16:03:19.723Z,34.10
2023-01-01T16:05:51.595Z,30.30
2023-01-01T16:08:20.539Z,34.60
2023-01-01T16:10:59.073Z,22.50
2023-01-01T16:13:30.331Z,19.60
2023-01-01T16:16:23.484Z,17.70
2023-01-01T16:18:53.241Z,22.60
2023-01-01T16:21:23.741Z,22.70
2023-01-01T16:24:03.856Z,18.60
2023-01-01T16:29:03.391Z,20.40
2023-01-01T16:31:35.569Z,25.50
2023-01-01T16:34:05.020Z,22.00
2023-01-01T16:36:34.180Z,21.10
2023-01-01T16:39:05.955Z,19.80
2023-01-01T16:41:34.884Z,23.90
2023-01-01T16:44:03.902Z,46.10
2023-01-01T16:46:34.061Z,51.00
2023-01-01T16:49:03.961Z,41.30
2023-01-01T16:51:37.616Z,32.90
2023-01-01T16:54:08.526Z,37.50
2023-01-01T16:56:37.272Z,33.70
2023-01-01T16:59:09.576Z,40.30
2023-01-01T17:01:39.682Z,71.60
2023-01-01T17:04:09.541Z,70.20
2023-01-01T17:06:41.533Z,63.80
2023-01-01T17:09:14.219Z,52.20
2023-01-01T17:11:45.382Z,60.80
2023-01-01T17:14:14.406Z,75.80
2023-01-01T17:16:55.772Z,73.40
2023-01-01T17:19:28.167Z,40.40
2023-01-01T17:21:56.755Z,35.10
2023-01-01T17:24:38.163Z,27.70
2023-01-01T17:27:27.601Z,25.40
2023-01-01T17:29:56.568Z,26.60
2023-01-01T17:32:45.416Z,21.00
2023-01-01T17:35:32.914Z,24.20
2023-01-01T17:38:04.702Z,21.10
2023-01-01T17:41:00.725Z,24.10
2023-01-01T17:43:51.415Z,20.50
2023-01-01T17:46:25.841Z,21.30
2023-01-01T17:48:54.881Z,19.30
2023-01-01T17:51:26.937Z,18.20
2023-01-01T17:53:57.095Z,19.80
2023-01-01T17:56:36.867Z,23.60
2023-01-01T17:59:05.717Z,24.00
2023-01-01T18:01:35.064Z,26.50
2023-01-01T18:04:05.934Z,25.80
2023-01-01T18:06:41.397Z,27.70
2023-01-01T18:09:13.521Z,23.00
2023-01-01T18:11:43.834Z,24.20
2023-01-01T18:14:24.621Z,22.80
2023-01-01T18:16:53.966Z,22.20
2023-01-01T18:19:23.234Z,22.00
2023-01-01T18:21:59.575Z,21.80
2023-01-01T18:24:38.530Z,23.70
2023-01-01T18:27:08.285Z,18.80
2023-01-01T18:29:40.079Z,21.70
2023-01-01T18:32:09.460Z,45.20
2023-01-01T18:34:48.144Z,30.60
2023-01-01T18:37:27.350Z,30.50
2023-01-01T18:40:00.368Z,32.20
2023-01-01T18:42:43.729Z,29.30
2023-01-01T18:45:33.975Z,30.50
2023-01-01T18:48:12.069Z,37.70
2023-01-01T18:50:41.300Z,40.80
2023-01-01T18:53:31.939Z,37.00
2023-01-01T18:56:11.507Z,35.70
2023-01-01T18:58:42.100Z,37.50
2023-01-01T19:01:33.163Z,42.40
2023-01-01T19:04:11.426Z,35.60
2023-01-01T19:06:43.071Z,32.90
2023-01-01T19:09:22.852Z,30.90
2023-01-01T19:11:53.541Z,34.00
2023-01-01T19:14:27.012Z,33.30
2023-01-01T19:17:01.684Z,37.80
2023-01-01T19:19:40.519Z,35.40
2023-01-01T19:22:30.096Z,39.10
2023-01-01T19:25:32.613Z,32.20
2023-01-01T19:28:25.606Z,38.60
2023-01-01T19:31:14.739Z,33.70
2023-01-01T19:33:53.820Z,34.30
2023-01-01T19:36:22.584Z,32.00
2023-01-01T19:38:51.365Z,35.50
2023-01-01T19:41:20.128Z,28.40
2023-01-01T19:43:52.209Z,31.10
2023-01-01T19:46:21.294Z,30.40
2023-01-01T19:48:53.165Z,31.90
2023-01-01T19:51:27.805Z,32.90
2023-01-01T19:53:59.467Z,28.20
2023-01-01T19:56:28.469Z,25.00
2023-01-01T19:59:08.868Z,36.20
2023-01-01T20:02:34.808Z,30.70
2023-01-01T20:05:10.540Z,27.40
2023-01-01T20:07:42.842Z,29.60
2023-01-01T20:10:17.421Z,22.50
2023-01-01T20:13:05.943Z,18.60
2023-01-01T20:15:55.118Z,19.70
2023-01-01T20:18:27.568Z,14.70
2023-01-01T20:21:26.730Z,18.30
2023-01-01T20:24:06.761Z,15.70
2023-01-01T20:26:38.741Z,20.10
2023-01-01T20:29:30.118Z,18.10
2023-01-01T20:32:12.217Z,21.40
2023-01-01T20:35:01.071Z,23.80
2023-01-01T20:37:36.432Z,20.70
2023-01-01T20:40:25.542Z,20.10
2023-01-01T20:42:54.277Z,18.00
2023-01-01T20:45:25.922Z,18.00
2023-01-01T20:48:04.489Z,29.10
2023-01-01T20:50:33.306Z,26.50
2023-01-01T20:53:22.301Z,22.40
2023-01-01T20:56:02.211Z,18.90
2023-01-01T20:58:31.030Z,17.30
2023-01-01T21:03:42.493Z,19.60
2023-01-01T21:06:18.469Z,25.30
2023-01-01T21:08:59.871Z,21.20
2023-01-01T21:11:31.009Z,24.50
2023-01-01T21:14:02.444Z,21.60
2023-01-01T21:16:51.939Z,23.70
2023-01-01T21:19:32.107Z,20.10
2023-01-01T21:24:47.361Z,16.80
2023-01-01T21:27:41.814Z,16.40
2023-01-01T21:30:14.300Z,17.00
2023-01-01T21:32:44.332Z,17.80
2023-01-01T21:35:25.979Z,16.30
2023-01-01T21:38:21.369Z,16.30
2023-01-01T21:40:53.968Z,16.10
2023-01-01T21:43:47.295Z,24.40
2023-01-01T21:46:35.466Z,16.00
2023-01-01T21:49:18.026Z,18.30
2023-01-01T21:51:53.535Z,19.00
2023-01-01T21:54:31.698Z,23.90
2023-01-01T21:57:23.331Z,21.50
2023-01-01T21:59:56.218Z,18.30
2023-01-01T22:02:36.874Z,20.10
2023-01-01T22:05:30.585Z,17.80
2023-01-01T22:08:22.831Z,16.90
2023-01-01T22:10:56.070Z,12.30
2023-01-01T22:13:28.286Z,16.10
2023-01-01T22:15:59.910Z,17.10
2023-01-01T22:18:39.159Z,17.30
2023-01-01T22:21:16.680Z,18.00
2023-01-01T22:23:59.383Z,17.70
2023-01-01T22:26:29.788Z,20.30
2023-01-01T22:29:07.937Z,18.80
2023-01-01T22:31:48.784Z,14.70
2023-01-01T22:34:38.223Z,16.10
2023-01-01T22:37:14.916Z,14.40
2023-01-01T22:39:43.894Z,17.00
2023-01-01T22:42:21.287Z,16.80
2023-01-01T22:47:30.698Z,15.10
2023-01-01T22:50:05.269Z,15.50
2023-01-01T22:52:44.087Z,16.70
2023-01-01T22:55:13.090Z,17.10
2023-01-01T22:57:41.796Z,15.00
2023-01-01T23:02:43.825Z,21.20
2023-01-01T23:05:25.457Z,17.90
2023-01-01T23:07:54.406Z,17.20
2023-01-01T23:10:32.539Z,17.00
2023-01-01T23:13:23.003Z,14.90
2023-01-01T23:16:01.163Z,16.60
2023-01-01T23:18:32.688Z,14.40
2023-01-01T23:21:03.098Z,17.80
2023-01-01T23:23:32.552Z,15.00
2023-01-01T23:26:04.346Z,16.10
2023-01-01T23:28:33.109Z,15.30
2023-01-01T23:31:13.197Z,16.20
2023-01-01T23:33:42.831Z,15.40
2023-01-01T23:36:14.918Z,12.20
2023-01-01T23:38:43.875Z,13.60
2023-01-01T23:41:12.518Z,13.40
2023-01-01T23:43:43.445Z,16.50
2023-01-01T23:46:16.198Z,13.50
2023-01-01T23:48:55.953Z,14.60
2023-01-01T23:51:26.467Z,11.40
2023-01-01T23:53:55.086Z,10.90
2023-01-01T23:56:35.112Z,12.30
2023-01-01T23:59:06.232Z,11.90
